sensor_id;sensor_type;location;lat;lon;timestamp;temperature;humidity
13472;DHT22;6808;49.444;11.034;2022-07-29T00:02:02;22.30;53.70
13472;DHT22;6808;49.444;11.034;2022-07-29T00:04:27;22.30;53.90
13472;DHT22;6808;49.444;11.034;2022-07-29T00:06:53;22.30;53.70
13472;DHT22;6808;49.444;11.034;2022-07-29T00:09:18;22.30;53.60
13472;DHT22;6808;49.444;11.034;2022-07-29T00:11:44;22.30;53.70
13472;DHT22;6808;49.444;11.034;2022-07-29T00:14:10;22.50;54.00
13472;DHT22;6808;49.444;11.034;2022-07-29T00:16:35;22.00;53.70
13472;DHT22;6808;49.444;11.034;2022-07-29T00:19:01;22.10;53.80
13472;DHT22;6808;49.444;11.034;2022-07-29T00:21:27;22.10;53.70
13472;DHT22;6808;49.444;11.034;2022-07-29T00:23:52;22.30;53.80
13472;DHT22;6808;49.444;11.034;2022-07-29T00:26:18;22.20;53.50
13472;DHT22;6808;49.444;11.034;2022-07-29T00:28:44;22.20;53.50
13472;DHT22;6808;49.444;11.034;2022-07-29T00:31:09;22.40;53.70
13472;DHT22;6808;49.444;11.034;2022-07-29T00:33:35;22.20;53.50
13472;DHT22;6808;49.444;11.034;2022-07-29T00:36:00;22.40;53.50
13472;DHT22;6808;49.444;11.034;2022-07-29T00:38:26;22.50;53.60
13472;DHT22;6808;49.444;11.034;2022-07-29T00:40:51;22.30;53.50
13472;DHT22;6808;49.444;11.034;2022-07-29T00:43:17;22.40;53.50
13472;DHT22;6808;49.444;11.034;2022-07-29T00:45:43;22.40;53.40
13472;DHT22;6808;49.444;11.034;2022-07-29T00:48:09;22.20;53.40
13472;DHT22;6808;49.444;11.034;2022-07-29T00:50:35;22.40;53.60
13472;DHT22;6808;49.444;11.034;2022-07-29T00:53:03;22.50;53.60
13472;DHT22;6808;49.444;11.034;2022-07-29T00:55:30;22.40;53.40
13472;DHT22;6808;49.444;11.034;2022-07-29T00:57:57;22.40;53.40
13472;DHT22;6808;49.444;11.034;2022-07-29T01:00:25;22.30;53.40
13472;DHT22;6808;49.444;11.034;2022-07-29T01:02:51;22.30;53.60
13472;DHT22;6808;49.444;11.034;2022-07-29T01:05:19;22.30;53.70
13472;DHT22;6808;49.444;11.034;2022-07-29T01:07:47;22.30;54.10
13472;DHT22;6808;49.444;11.034;2022-07-29T01:10:14;22.40;54.00
13472;DHT22;6808;49.444;11.034;2022-07-29T01:12:41;22.60;54.70
13472;DHT22;6808;49.444;11.034;2022-07-29T01:15:08;22.30;55.40
13472;DHT22;6808;49.444;11.034;2022-07-29T01:17:43;22.30;55.40
13472;DHT22;6808;49.444;11.034;2022-07-29T01:29:05;22.30;56.00
13472;DHT22;6808;49.444;11.034;2022-07-29T01:31:51;22.30;56.10
13472;DHT22;6808;49.444;11.034;2022-07-29T01:34:27;22.30;57.20
13472;DHT22;6808;49.444;11.034;2022-07-29T01:37:01;22.40;57.30
13472;DHT22;6808;49.444;11.034;2022-07-29T01:39:35;22.30;56.90
13472;DHT22;6808;49.444;11.034;2022-07-29T01:45:10;22.30;57.70
13472;DHT22;6808;49.444;11.034;2022-07-29T01:47:43;22.30;57.90
13472;DHT22;6808;49.444;11.034;2022-07-29T01:50:12;22.20;57.50
13472;DHT22;6808;49.444;11.034;2022-07-29T01:52:44;22.30;57.70
13472;DHT22;6808;49.444;11.034;2022-07-29T01:55:14;22.10;58.40
13472;DHT22;6808;49.444;11.034;2022-07-29T01:57:43;22.20;58.90
13472;DHT22;6808;49.444;11.034;2022-07-29T02:00:10;22.10;59.30
13472;DHT22;6808;49.444;11.034;2022-07-29T02:02:39;22.00;58.90
13472;DHT22;6808;49.444;11.034;2022-07-29T02:05:07;22.10;59.30
13472;DHT22;6808;49.444;11.034;2022-07-29T02:07:35;21.90;59.30
13472;DHT22;6808;49.444;11.034;2022-07-29T02:10:04;21.90;59.40
13472;DHT22;6808;49.444;11.034;2022-07-29T02:12:31;21.90;59.40
13472;DHT22;6808;49.444;11.034;2022-07-29T02:15:00;22.00;59.70
13472;DHT22;6808;49.444;11.034;2022-07-29T02:17:31;21.90;60.00
13472;DHT22;6808;49.444;11.034;2022-07-29T02:20:00;22.10;60.60
13472;DHT22;6808;49.444;11.034;2022-07-29T02:22:29;22.70;63.00
13472;DHT22;6808;49.444;11.034;2022-07-29T02:24:55;22.50;63.10
13472;DHT22;6808;49.444;11.034;2022-07-29T02:27:22;21.80;62.20
13472;DHT22;6808;49.444;11.034;2022-07-29T02:29:49;21.90;62.10
13472;DHT22;6808;49.444;11.034;2022-07-29T02:32:16;21.70;62.70
13472;DHT22;6808;49.444;11.034;2022-07-29T02:34:43;21.70;62.70
13472;DHT22;6808;49.444;11.034;2022-07-29T02:37:11;21.60;64.50
13472;DHT22;6808;49.444;11.034;2022-07-29T02:39:39;21.70;63.80
13472;DHT22;6808;49.444;11.034;2022-07-29T02:42:07;21.60;63.90
13472;DHT22;6808;49.444;11.034;2022-07-29T02:44:35;21.60;63.60
13472;DHT22;6808;49.444;11.034;2022-07-29T02:47:17;21.70;62.90
13472;DHT22;6808;49.444;11.034;2022-07-29T02:50:02;21.50;59.50
13472;DHT22;6808;49.444;11.034;2022-07-29T02:52:45;21.50;60.90
13472;DHT22;6808;49.444;11.034;2022-07-29T02:55:26;21.50;61.20
13472;DHT22;6808;49.444;11.034;2022-07-29T02:57:59;21.50;61.50
13472;DHT22;6808;49.444;11.034;2022-07-29T03:00:28;21.70;61.50
13472;DHT22;6808;49.444;11.034;2022-07-29T03:02:58;21.60;61.10
13472;DHT22;6808;49.444;11.034;2022-07-29T03:05:24;21.50;61.10
13472;DHT22;6808;49.444;11.034;2022-07-29T03:07:54;21.70;61.50
13472;DHT22;6808;49.444;11.034;2022-07-29T03:10:21;22.00;61.80
13472;DHT22;6808;49.444;11.034;2022-07-29T03:12:47;21.50;61.20
13472;DHT22;6808;49.444;11.034;2022-07-29T03:15:14;21.50;61.30
13472;DHT22;6808;49.444;11.034;2022-07-29T03:17:39;22.30;63.20
13472;DHT22;6808;49.444;11.034;2022-07-29T03:20:07;21.40;62.70
13472;DHT22;6808;49.444;11.034;2022-07-29T03:22:41;21.40;63.40
13472;DHT22;6808;49.444;11.034;2022-07-29T03:25:14;21.50;63.20
13472;DHT22;6808;49.444;11.034;2022-07-29T03:27:40;21.40;63.10
13472;DHT22;6808;49.444;11.034;2022-07-29T03:30:06;21.30;63.20
13472;DHT22;6808;49.444;11.034;2022-07-29T03:32:32;21.20;63.50
13472;DHT22;6808;49.444;11.034;2022-07-29T03:34:58;21.20;63.70
13472;DHT22;6808;49.444;11.034;2022-07-29T03:37:24;21.30;63.30
13472;DHT22;6808;49.444;11.034;2022-07-29T03:39:51;21.10;64.30
13472;DHT22;6808;49.444;11.034;2022-07-29T03:42:19;21.60;65.20
13472;DHT22;6808;49.444;11.034;2022-07-29T03:44:47;21.10;65.50
13472;DHT22;6808;49.444;11.034;2022-07-29T03:47:14;21.30;65.30
13472;DHT22;6808;49.444;11.034;2022-07-29T03:49:40;21.10;61.50
13472;DHT22;6808;49.444;11.034;2022-07-29T03:52:07;21.00;60.30
13472;DHT22;6808;49.444;11.034;2022-07-29T03:54:33;21.10;60.60
13472;DHT22;6808;49.444;11.034;2022-07-29T03:57:01;21.40;59.70
13472;DHT22;6808;49.444;11.034;2022-07-29T03:59:27;21.10;59.10
13472;DHT22;6808;49.444;11.034;2022-07-29T04:01:53;20.70;58.80
13472;DHT22;6808;49.444;11.034;2022-07-29T04:04:21;20.60;58.70
13472;DHT22;6808;49.444;11.034;2022-07-29T04:06:47;20.50;58.60
13472;DHT22;6808;49.444;11.034;2022-07-29T04:09:13;20.60;59.10
13472;DHT22;6808;49.444;11.034;2022-07-29T04:11:40;21.10;60.70
13472;DHT22;6808;49.444;11.034;2022-07-29T04:14:06;20.70;60.40
13472;DHT22;6808;49.444;11.034;2022-07-29T04:16:32;20.70;59.10
13472;DHT22;6808;49.444;11.034;2022-07-29T04:18:58;21.10;59.90
13472;DHT22;6808;49.444;11.034;2022-07-29T04:21:23;20.70;59.10
13472;DHT22;6808;49.444;11.034;2022-07-29T04:23:49;20.70;59.40
13472;DHT22;6808;49.444;11.034;2022-07-29T04:26:18;20.90;60.30
13472;DHT22;6808;49.444;11.034;2022-07-29T04:28:44;20.80;60.60
13472;DHT22;6808;49.444;11.034;2022-07-29T04:31:11;20.80;60.20
13472;DHT22;6808;49.444;11.034;2022-07-29T04:33:36;20.80;58.90
13472;DHT22;6808;49.444;11.034;2022-07-29T04:36:02;21.00;59.30
13472;DHT22;6808;49.444;11.034;2022-07-29T04:38:28;20.80;60.00
13472;DHT22;6808;49.444;11.034;2022-07-29T04:40:54;20.80;60.30
13472;DHT22;6808;49.444;11.034;2022-07-29T04:43:20;20.80;59.00
13472;DHT22;6808;49.444;11.034;2022-07-29T04:45:46;20.80;59.00
13472;DHT22;6808;49.444;11.034;2022-07-29T04:48:11;20.70;58.90
13472;DHT22;6808;49.444;11.034;2022-07-29T04:50:40;21.10;61.80
13472;DHT22;6808;49.444;11.034;2022-07-29T04:53:06;20.90;63.60
13472;DHT22;6808;49.444;11.034;2022-07-29T04:55:33;20.70;63.90
13472;DHT22;6808;49.444;11.034;2022-07-29T04:57:58;21.30;66.70
13472;DHT22;6808;49.444;11.034;2022-07-29T05:00:24;20.70;66.30
13472;DHT22;6808;49.444;11.034;2022-07-29T05:02:49;20.70;66.90
13472;DHT22;6808;49.444;11.034;2022-07-29T05:05:15;20.70;66.70
13472;DHT22;6808;49.444;11.034;2022-07-29T05:07:41;20.60;65.00
13472;DHT22;6808;49.444;11.034;2022-07-29T05:10:07;20.70;66.20
13472;DHT22;6808;49.444;11.034;2022-07-29T05:12:33;20.70;68.50
13472;DHT22;6808;49.444;11.034;2022-07-29T05:14:59;20.70;68.20
13472;DHT22;6808;49.444;11.034;2022-07-29T05:17:25;20.70;67.80
13472;DHT22;6808;49.444;11.034;2022-07-29T05:19:50;20.80;66.00
13472;DHT22;6808;49.444;11.034;2022-07-29T05:22:20;20.70;64.20
13472;DHT22;6808;49.444;11.034;2022-07-29T05:24:46;20.90;64.20
13472;DHT22;6808;49.444;11.034;2022-07-29T05:27:12;21.40;63.80
13472;DHT22;6808;49.444;11.034;2022-07-29T05:29:38;21.40;64.20
13472;DHT22;6808;49.444;11.034;2022-07-29T05:32:04;21.00;63.40
13472;DHT22;6808;49.444;11.034;2022-07-29T05:34:30;21.00;62.70
13472;DHT22;6808;49.444;11.034;2022-07-29T05:36:56;21.30;63.80
13472;DHT22;6808;49.444;11.034;2022-07-29T05:39:22;21.10;66.20
13472;DHT22;6808;49.444;11.034;2022-07-29T05:41:48;21.10;66.90
13472;DHT22;6808;49.444;11.034;2022-07-29T05:44:13;21.20;65.30
13472;DHT22;6808;49.444;11.034;2022-07-29T05:46:39;21.20;64.30
13472;DHT22;6808;49.444;11.034;2022-07-29T05:49:05;21.50;66.30
13472;DHT22;6808;49.444;11.034;2022-07-29T05:51:32;21.50;64.20
13472;DHT22;6808;49.444;11.034;2022-07-29T05:53:58;22.20;64.40
13472;DHT22;6808;49.444;11.034;2022-07-29T05:56:24;21.90;63.40
13472;DHT22;6808;49.444;11.034;2022-07-29T05:58:50;22.00;62.00
13472;DHT22;6808;49.444;11.034;2022-07-29T06:01:15;22.50;62.10
13472;DHT22;6808;49.444;11.034;2022-07-29T06:03:41;22.80;62.50
13472;DHT22;6808;49.444;11.034;2022-07-29T06:06:07;23.20;61.10
13472;DHT22;6808;49.444;11.034;2022-07-29T06:08:33;24.60;61.50
13472;DHT22;6808;49.444;11.034;2022-07-29T06:11:04;24.50;60.10
13472;DHT22;6808;49.444;11.034;2022-07-29T06:13:30;24.90;59.70
13472;DHT22;6808;49.444;11.034;2022-07-29T06:15:56;24.10;58.60
13472;DHT22;6808;49.444;11.034;2022-07-29T06:18:21;24.00;58.40
13472;DHT22;6808;49.444;11.034;2022-07-29T06:20:50;24.70;59.90
13472;DHT22;6808;49.444;11.034;2022-07-29T06:23:16;24.30;59.50
13472;DHT22;6808;49.444;11.034;2022-07-29T06:25:42;24.00;59.00
13472;DHT22;6808;49.444;11.034;2022-07-29T06:28:07;24.10;58.80
13472;DHT22;6808;49.444;11.034;2022-07-29T06:30:33;24.70;59.10
13472;DHT22;6808;49.444;11.034;2022-07-29T06:32:58;24.90;58.80
13472;DHT22;6808;49.444;11.034;2022-07-29T06:35:25;24.60;58.00
13472;DHT22;6808;49.444;11.034;2022-07-29T06:37:51;24.30;58.10
13472;DHT22;6808;49.444;11.034;2022-07-29T06:40:17;24.80;58.60
13472;DHT22;6808;49.444;11.034;2022-07-29T06:43:02;24.40;58.10
13472;DHT22;6808;49.444;11.034;2022-07-29T06:45:27;24.40;58.90
13472;DHT22;6808;49.444;11.034;2022-07-29T06:47:53;24.30;58.40
13472;DHT22;6808;49.444;11.034;2022-07-29T06:50:18;24.90;59.00
13472;DHT22;6808;49.444;11.034;2022-07-29T06:52:44;24.30;59.00
13472;DHT22;6808;49.444;11.034;2022-07-29T06:55:10;24.90;59.30
13472;DHT22;6808;49.444;11.034;2022-07-29T06:57:35;24.70;59.60
13472;DHT22;6808;49.444;11.034;2022-07-29T07:00:01;24.40;59.80
13472;DHT22;6808;49.444;11.034;2022-07-29T07:02:29;24.60;60.10
13472;DHT22;6808;49.444;11.034;2022-07-29T07:04:55;24.70;59.20
13472;DHT22;6808;49.444;11.034;2022-07-29T07:07:20;25.70;59.50
13472;DHT22;6808;49.444;11.034;2022-07-29T07:09:46;25.30;59.10
13472;DHT22;6808;49.444;11.034;2022-07-29T07:12:11;25.00;59.40
13472;DHT22;6808;49.444;11.034;2022-07-29T07:14:37;24.90;59.20
13472;DHT22;6808;49.444;11.034;2022-07-29T07:17:02;25.20;59.50
13472;DHT22;6808;49.444;11.034;2022-07-29T07:19:29;25.10;59.00
13472;DHT22;6808;49.444;11.034;2022-07-29T07:21:55;25.20;59.50
13472;DHT22;6808;49.444;11.034;2022-07-29T07:24:20;25.20;59.00
13472;DHT22;6808;49.444;11.034;2022-07-29T07:26:46;25.30;59.40
13472;DHT22;6808;49.444;11.034;2022-07-29T07:29:11;25.30;59.10
13472;DHT22;6808;49.444;11.034;2022-07-29T07:31:37;25.60;58.90
13472;DHT22;6808;49.444;11.034;2022-07-29T07:34:03;25.00;59.10
13472;DHT22;6808;49.444;11.034;2022-07-29T07:36:29;25.20;59.60
13472;DHT22;6808;49.444;11.034;2022-07-29T07:38:54;25.10;59.40
13472;DHT22;6808;49.444;11.034;2022-07-29T07:41:21;25.10;59.80
13472;DHT22;6808;49.444;11.034;2022-07-29T07:43:47;25.10;59.90
13472;DHT22;6808;49.444;11.034;2022-07-29T07:46:13;25.50;60.90
13472;DHT22;6808;49.444;11.034;2022-07-29T07:48:38;25.60;60.20
13472;DHT22;6808;49.444;11.034;2022-07-29T07:51:04;25.90;59.60
13472;DHT22;6808;49.444;11.034;2022-07-29T07:53:29;26.00;61.30
13472;DHT22;6808;49.444;11.034;2022-07-29T07:55:55;26.00;59.40
13472;DHT22;6808;49.444;11.034;2022-07-29T07:58:21;26.10;59.50
13472;DHT22;6808;49.444;11.034;2022-07-29T08:00:47;25.90;60.20
13472;DHT22;6808;49.444;11.034;2022-07-29T08:03:12;25.90;62.90
13472;DHT22;6808;49.444;11.034;2022-07-29T08:05:39;25.70;59.60
13472;DHT22;6808;49.444;11.034;2022-07-29T08:08:05;25.80;59.80
13472;DHT22;6808;49.444;11.034;2022-07-29T08:10:31;25.90;59.70
13472;DHT22;6808;49.444;11.034;2022-07-29T08:13:15;25.80;59.00
13472;DHT22;6808;49.444;11.034;2022-07-29T08:15:41;25.70;59.30
13472;DHT22;6808;49.444;11.034;2022-07-29T08:18:08;25.80;62.50
13472;DHT22;6808;49.444;11.034;2022-07-29T08:20:34;26.00;63.40
13472;DHT22;6808;49.444;11.034;2022-07-29T08:23:01;25.70;63.50
13472;DHT22;6808;49.444;11.034;2022-07-29T08:25:27;25.80;61.30
13472;DHT22;6808;49.444;11.034;2022-07-29T08:27:53;26.00;59.50
13472;DHT22;6808;49.444;11.034;2022-07-29T08:30:19;25.90;58.60
13472;DHT22;6808;49.444;11.034;2022-07-29T08:32:44;25.80;58.70
13472;DHT22;6808;49.444;11.034;2022-07-29T08:35:10;26.00;58.90
13472;DHT22;6808;49.444;11.034;2022-07-29T08:37:35;25.90;58.70
13472;DHT22;6808;49.444;11.034;2022-07-29T08:40:01;26.10;60.00
13472;DHT22;6808;49.444;11.034;2022-07-29T08:42:27;26.20;59.00
13472;DHT22;6808;49.444;11.034;2022-07-29T08:44:53;26.30;59.40
13472;DHT22;6808;49.444;11.034;2022-07-29T08:47:19;26.50;63.00
13472;DHT22;6808;49.444;11.034;2022-07-29T08:49:45;26.50;60.50
13472;DHT22;6808;49.444;11.034;2022-07-29T08:52:12;26.50;59.70
13472;DHT22;6808;49.444;11.034;2022-07-29T08:54:43;26.70;58.00
13472;DHT22;6808;49.444;11.034;2022-07-29T08:57:12;26.60;58.80
13472;DHT22;6808;49.444;11.034;2022-07-29T08:59:40;26.60;57.90
13472;DHT22;6808;49.444;11.034;2022-07-29T09:02:15;26.70;62.50
13472;DHT22;6808;49.444;11.034;2022-07-29T09:04:44;26.70;59.30
13472;DHT22;6808;49.444;11.034;2022-07-29T09:07:17;26.80;64.10
13472;DHT22;6808;49.444;11.034;2022-07-29T09:09:43;26.90;59.50
13472;DHT22;6808;49.444;11.034;2022-07-29T09:12:09;27.00;61.20
13472;DHT22;6808;49.444;11.034;2022-07-29T09:14:40;27.10;57.70
13472;DHT22;6808;49.444;11.034;2022-07-29T09:17:06;27.20;58.80
13472;DHT22;6808;49.444;11.034;2022-07-29T09:19:36;27.30;61.20
13472;DHT22;6808;49.444;11.034;2022-07-29T09:22:05;27.40;59.20
13472;DHT22;6808;49.444;11.034;2022-07-29T09:27:00;27.60;55.40
13472;DHT22;6808;49.444;11.034;2022-07-29T09:29:26;27.70;55.30
13472;DHT22;6808;49.444;11.034;2022-07-29T09:31:54;27.80;54.10
13472;DHT22;6808;49.444;11.034;2022-07-29T09:34:24;27.70;53.80
13472;DHT22;6808;49.444;11.034;2022-07-29T09:36:52;27.50;53.90
13472;DHT22;6808;49.444;11.034;2022-07-29T09:41:56;27.50;54.10
13472;DHT22;6808;49.444;11.034;2022-07-29T09:44:23;27.40;53.50
13472;DHT22;6808;49.444;11.034;2022-07-29T09:46:54;27.50;53.90
13472;DHT22;6808;49.444;11.034;2022-07-29T09:49:20;27.60;56.20
13472;DHT22;6808;49.444;11.034;2022-07-29T09:51:45;27.70;58.70
13472;DHT22;6808;49.444;11.034;2022-07-29T09:54:24;27.70;57.10
13472;DHT22;6808;49.444;11.034;2022-07-29T09:56:54;27.70;55.80
13472;DHT22;6808;49.444;11.034;2022-07-29T09:59:21;27.70;58.70
13472;DHT22;6808;49.444;11.034;2022-07-29T10:01:49;27.70;55.90
13472;DHT22;6808;49.444;11.034;2022-07-29T10:04:16;27.70;58.00
13472;DHT22;6808;49.444;11.034;2022-07-29T10:07:01;27.80;57.10
13472;DHT22;6808;49.444;11.034;2022-07-29T10:09:28;27.80;57.50
13472;DHT22;6808;49.444;11.034;2022-07-29T10:14:35;27.90;54.70
13472;DHT22;6808;49.444;11.034;2022-07-29T10:17:02;27.90;57.40
13472;DHT22;6808;49.444;11.034;2022-07-29T10:19:29;27.90;57.70
13472;DHT22;6808;49.444;11.034;2022-07-29T10:21:58;28.00;60.00
13472;DHT22;6808;49.444;11.034;2022-07-29T10:24:28;28.10;55.00
13472;DHT22;6808;49.444;11.034;2022-07-29T10:26:55;28.00;54.90
13472;DHT22;6808;49.444;11.034;2022-07-29T10:29:21;28.10;58.00
13472;DHT22;6808;49.444;11.034;2022-07-29T10:37:37;28.20;55.80
13472;DHT22;6808;49.444;11.034;2022-07-29T10:40:30;28.30;59.10
13472;DHT22;6808;49.444;11.034;2022-07-29T10:43:20;28.30;55.00
13472;DHT22;6808;49.444;11.034;2022-07-29T10:45:48;28.40;58.60
13472;DHT22;6808;49.444;11.034;2022-07-29T10:48:15;28.50;55.10
13472;DHT22;6808;49.444;11.034;2022-07-29T10:50:56;28.60;55.30
13472;DHT22;6808;49.444;11.034;2022-07-29T10:53:24;28.50;54.80
13472;DHT22;6808;49.444;11.034;2022-07-29T10:55:51;28.50;54.80
13472;DHT22;6808;49.444;11.034;2022-07-29T10:58:22;28.70;55.20
13472;DHT22;6808;49.444;11.034;2022-07-29T11:00:53;28.70;52.20
13472;DHT22;6808;49.444;11.034;2022-07-29T11:03:46;28.60;52.90
13472;DHT22;6808;49.444;11.034;2022-07-29T11:06:12;28.40;52.60
13472;DHT22;6808;49.444;11.034;2022-07-29T11:08:38;28.40;54.80
13472;DHT22;6808;49.444;11.034;2022-07-29T11:16:14;28.50;53.00
13472;DHT22;6808;49.444;11.034;2022-07-29T11:21:41;28.50;56.40
13472;DHT22;6808;49.444;11.034;2022-07-29T11:24:15;28.70;56.90
13472;DHT22;6808;49.444;11.034;2022-07-29T11:26:42;28.80;58.30
13472;DHT22;6808;49.444;11.034;2022-07-29T11:29:20;28.90;53.20
13472;DHT22;6808;49.444;11.034;2022-07-29T11:31:50;29.00;53.30
13472;DHT22;6808;49.444;11.034;2022-07-29T11:34:27;29.00;53.30
13472;DHT22;6808;49.444;11.034;2022-07-29T11:39:33;28.90;52.60
13472;DHT22;6808;49.444;11.034;2022-07-29T11:45:10;28.70;53.70
13472;DHT22;6808;49.444;11.034;2022-07-29T11:50:26;28.80;54.00
13472;DHT22;6808;49.444;11.034;2022-07-29T11:52:52;28.90;56.40
13472;DHT22;6808;49.444;11.034;2022-07-29T11:55:20;29.10;57.60
13472;DHT22;6808;49.444;11.034;2022-07-29T11:57:48;29.20;52.90
13472;DHT22;6808;49.444;11.034;2022-07-29T12:00:22;29.20;57.00
13472;DHT22;6808;49.444;11.034;2022-07-29T12:02:48;29.20;56.50
13472;DHT22;6808;49.444;11.034;2022-07-29T12:05:14;29.10;55.50
13472;DHT22;6808;49.444;11.034;2022-07-29T12:07:39;29.20;56.80
13472;DHT22;6808;49.444;11.034;2022-07-29T12:10:06;29.30;59.20
13472;DHT22;6808;49.444;11.034;2022-07-29T12:12:33;29.50;55.20
13472;DHT22;6808;49.444;11.034;2022-07-29T12:15:17;29.80;60.70
13472;DHT22;6808;49.444;11.034;2022-07-29T12:17:45;30.00;57.80
13472;DHT22;6808;49.444;11.034;2022-07-29T12:20:11;30.20;53.20
13472;DHT22;6808;49.444;11.034;2022-07-29T12:22:40;30.30;51.00
13472;DHT22;6808;49.444;11.034;2022-07-29T12:25:12;29.90;51.10
13472;DHT22;6808;49.444;11.034;2022-07-29T12:27:39;30.00;54.70
13472;DHT22;6808;49.444;11.034;2022-07-29T12:30:13;30.30;55.60
13472;DHT22;6808;49.444;11.034;2022-07-29T12:32:45;30.30;54.50
13472;DHT22;6808;49.444;11.034;2022-07-29T12:37:39;30.50;49.40
13472;DHT22;6808;49.444;11.034;2022-07-29T12:40:08;30.60;54.40
13472;DHT22;6808;49.444;11.034;2022-07-29T12:42:34;30.50;51.80
13472;DHT22;6808;49.444;11.034;2022-07-29T12:45:00;30.30;48.50
13472;DHT22;6808;49.444;11.034;2022-07-29T12:47:26;30.00;48.70
13472;DHT22;6808;49.444;11.034;2022-07-29T12:50:12;30.20;50.60
13472;DHT22;6808;49.444;11.034;2022-07-29T12:52:39;30.30;50.90
13472;DHT22;6808;49.444;11.034;2022-07-29T12:55:05;30.20;48.90
13472;DHT22;6808;49.444;11.034;2022-07-29T12:57:32;30.30;54.10
13472;DHT22;6808;49.444;11.034;2022-07-29T13:02:32;30.70;56.60
13472;DHT22;6808;49.444;11.034;2022-07-29T13:04:59;31.00;55.00
13472;DHT22;6808;49.444;11.034;2022-07-29T13:07:28;31.20;52.40
13472;DHT22;6808;49.444;11.034;2022-07-29T13:10:13;31.40;53.30
13472;DHT22;6808;49.444;11.034;2022-07-29T13:15:31;31.00;51.30
13472;DHT22;6808;49.444;11.034;2022-07-29T13:17:56;31.00;48.40
13472;DHT22;6808;49.444;11.034;2022-07-29T13:20:28;30.90;46.40
13472;DHT22;6808;49.444;11.034;2022-07-29T13:22:59;30.80;47.70
13472;DHT22;6808;49.444;11.034;2022-07-29T13:25:30;30.80;46.70
13472;DHT22;6808;49.444;11.034;2022-07-29T13:27:58;30.70;44.90
13472;DHT22;6808;49.444;11.034;2022-07-29T13:30:24;30.70;46.00
13472;DHT22;6808;49.444;11.034;2022-07-29T13:32:51;30.80;47.30
13472;DHT22;6808;49.444;11.034;2022-07-29T13:35:18;30.80;46.00
13472;DHT22;6808;49.444;11.034;2022-07-29T13:37:44;30.70;46.20
13472;DHT22;6808;49.444;11.034;2022-07-29T13:40:10;30.60;46.00
13472;DHT22;6808;49.444;11.034;2022-07-29T13:42:36;30.40;46.60
13472;DHT22;6808;49.444;11.034;2022-07-29T13:45:03;30.30;46.70
13472;DHT22;6808;49.444;11.034;2022-07-29T13:47:30;29.80;47.40
13472;DHT22;6808;49.444;11.034;2022-07-29T13:49:55;29.40;48.30
13472;DHT22;6808;49.444;11.034;2022-07-29T13:52:21;28.90;49.00
13472;DHT22;6808;49.444;11.034;2022-07-29T13:54:49;28.80;50.60
13472;DHT22;6808;49.444;11.034;2022-07-29T13:57:15;28.70;50.90
13472;DHT22;6808;49.444;11.034;2022-07-29T13:59:41;28.50;51.80
13472;DHT22;6808;49.444;11.034;2022-07-29T14:02:08;28.40;52.30
13472;DHT22;6808;49.444;11.034;2022-07-29T14:04:34;28.30;52.40
13472;DHT22;6808;49.444;11.034;2022-07-29T14:07:00;28.20;53.40
13472;DHT22;6808;49.444;11.034;2022-07-29T14:09:27;28.20;53.10
13472;DHT22;6808;49.444;11.034;2022-07-29T14:11:53;27.90;51.70
13472;DHT22;6808;49.444;11.034;2022-07-29T14:14:19;27.80;51.30
13472;DHT22;6808;49.444;11.034;2022-07-29T14:16:45;27.70;52.20
13472;DHT22;6808;49.444;11.034;2022-07-29T14:19:10;27.60;53.40
13472;DHT22;6808;49.444;11.034;2022-07-29T14:21:37;27.30;53.10
13472;DHT22;6808;49.444;11.034;2022-07-29T14:24:07;27.10;53.60
13472;DHT22;6808;49.444;11.034;2022-07-29T14:26:32;27.10;53.40
13472;DHT22;6808;49.444;11.034;2022-07-29T14:28:58;26.90;54.30
13472;DHT22;6808;49.444;11.034;2022-07-29T14:31:24;26.60;55.30
13472;DHT22;6808;49.444;11.034;2022-07-29T14:33:55;26.40;55.70
13472;DHT22;6808;49.444;11.034;2022-07-29T14:36:21;26.20;56.80
13472;DHT22;6808;49.444;11.034;2022-07-29T14:38:47;26.20;59.40
13472;DHT22;6808;49.444;11.034;2022-07-29T14:41:12;26.00;62.00
13472;DHT22;6808;49.444;11.034;2022-07-29T14:43:38;26.00;63.70
13472;DHT22;6808;49.444;11.034;2022-07-29T14:46:04;25.90;65.00
13472;DHT22;6808;49.444;11.034;2022-07-29T14:48:29;26.00;66.10
13472;DHT22;6808;49.444;11.034;2022-07-29T14:51:11;26.20;69.20
13472;DHT22;6808;49.444;11.034;2022-07-29T14:53:38;26.40;71.90
13472;DHT22;6808;49.444;11.034;2022-07-29T14:56:04;26.30;74.20
13472;DHT22;6808;49.444;11.034;2022-07-29T14:58:29;26.30;73.70
13472;DHT22;6808;49.444;11.034;2022-07-29T15:00:55;26.30;75.40
13472;DHT22;6808;49.444;11.034;2022-07-29T15:03:21;26.30;73.70
13472;DHT22;6808;49.444;11.034;2022-07-29T15:05:47;26.30;73.60
13472;DHT22;6808;49.444;11.034;2022-07-29T15:08:12;26.30;72.70
13472;DHT22;6808;49.444;11.034;2022-07-29T15:10:38;26.30;72.50
13472;DHT22;6808;49.444;11.034;2022-07-29T15:13:03;26.30;71.60
13472;DHT22;6808;49.444;11.034;2022-07-29T15:15:29;26.30;71.90
13472;DHT22;6808;49.444;11.034;2022-07-29T15:17:54;26.40;73.90
13472;DHT22;6808;49.444;11.034;2022-07-29T15:20:20;26.40;74.90
13472;DHT22;6808;49.444;11.034;2022-07-29T15:22:49;26.40;75.90
13472;DHT22;6808;49.444;11.034;2022-07-29T15:25:15;26.40;75.30
13472;DHT22;6808;49.444;11.034;2022-07-29T15:27:45;26.40;74.70
13472;DHT22;6808;49.444;11.034;2022-07-29T15:30:10;26.30;75.50
13472;DHT22;6808;49.444;11.034;2022-07-29T15:32:39;26.20;76.60
13472;DHT22;6808;49.444;11.034;2022-07-29T15:35:05;26.10;77.50
13472;DHT22;6808;49.444;11.034;2022-07-29T15:37:31;26.10;77.20
13472;DHT22;6808;49.444;11.034;2022-07-29T15:39:59;26.00;79.20
13472;DHT22;6808;49.444;11.034;2022-07-29T15:42:24;25.90;79.30
13472;DHT22;6808;49.444;11.034;2022-07-29T15:44:50;25.90;80.30
13472;DHT22;6808;49.444;11.034;2022-07-29T15:47:15;25.80;83.20
13472;DHT22;6808;49.444;11.034;2022-07-29T15:49:46;25.70;85.00
13472;DHT22;6808;49.444;11.034;2022-07-29T15:52:11;25.60;87.30
13472;DHT22;6808;49.444;11.034;2022-07-29T15:54:39;25.50;89.10
13472;DHT22;6808;49.444;11.034;2022-07-29T15:57:06;25.30;91.60
13472;DHT22;6808;49.444;11.034;2022-07-29T15:59:33;25.10;93.30
13472;DHT22;6808;49.444;11.034;2022-07-29T16:01:59;25.00;94.80
13472;DHT22;6808;49.444;11.034;2022-07-29T16:04:26;24.90;95.40
13472;DHT22;6808;49.444;11.034;2022-07-29T16:06:52;24.70;96.50
13472;DHT22;6808;49.444;11.034;2022-07-29T16:09:17;24.60;96.90
13472;DHT22;6808;49.444;11.034;2022-07-29T16:11:44;24.50;96.90
13472;DHT22;6808;49.444;11.034;2022-07-29T16:14:11;24.50;97.40
13472;DHT22;6808;49.444;11.034;2022-07-29T16:16:37;24.40;98.60
13472;DHT22;6808;49.444;11.034;2022-07-29T16:19:04;24.30;98.80
13472;DHT22;6808;49.444;11.034;2022-07-29T16:21:29;24.30;98.80
13472;DHT22;6808;49.444;11.034;2022-07-29T16:23:56;24.20;99.70